Florissant, Missouri
Current Conditions -  °F | °C
As of 5:51 PM on Wednesday 28 Jan 2015 (Local Time) from KSTL Reporting Station
Broken Clouds Broken Clouds  
Wind Chill: 41°   Ceiling: 25000
Heat Index: 47°   Visibility: 10mi
Dew Point: 32°   Wind: 14mph
Humidity: 56%   Direction: 140°SE
Pressure: 29.95"   Gusts: 22mph
Location:  38.79°N, 90.32°W
Report Text: KSTL 282351Z 14012G19KT 10SM FEW120 SCT150 BKN250 08/00 A2995 RMK AO2 SLP150 T00830000 10100 20061 56024
Loading
Personal Weather Stations






























Interactive Weather Map New forecast layout! Learn more

10-Day Weather Forecast

Advertisements
Track Severe Weather on mobile